Caleb J. Eymard — WDC8180 — position and weather

sailwx.info

Track history (hours):
 
Tides and Currents Weather Stations Pressure Air Temp Water Temp Dewpoint Dewpoint Depression Visibility Wind Speed Wind Dir Waves Ship Positions

Caleb J. Eymard

Owner: Eymard Brothers Towing Company, Inc., Marrero, LA. More information available from US FCC via Universal Licensing System and Coast Guard Vessel Documentation Center.

Last reported at 2017-Oct-17 23:53 UTC. Time now 2017-Oct-18 00:20 UTC.
Position N 29°44' W 095°03'.

Length 20 m; draft 3 m.

Type: Towing. MMSI: 367082880.

Date/timePositionNaut miles runAvg speedWind from/ knotsBaromVisibWave heightAir tempDewpointWater temp
2017-Oct-17 23:53N 29°44' W 095°03'3 5.1
2017-Oct-17 23:21N 29°46' W 095°05'3 5.7
2017-Oct-17 22:51N 29°44' W 095°08'3 5.8
2017-Oct-17 22:21N 29°45' W 095°11'2 5.6
2017-Oct-17 21:59N 29°43' W 095°13'3 5.3
2017-Oct-17 21:30N 29°44' W 095°16'1 1.4
2017-Oct-17 21:00N 29°44' W 095°17'0 0.1
2017-Oct-17 19:54N 29°44' W 095°17'0 0.0
2017-Oct-17 18:24N 29°44' W 095°17'0 0.0
2017-Oct-17 17:47N 29°44' W 095°17'0 0.0
2017-Oct-17 17:26N 29°44' W 095°17'0 0.0
2017-Oct-17 16:50N 29°44' W 095°17'0 0.0
2017-Oct-17 16:21N 29°44' W 095°17'0 0.0
2017-Oct-17 14:43N 29°44' W 095°17'0 0.0
2017-Oct-17 14:30N 29°44' W 095°17'0 0.0
2017-Oct-17 13:55N 29°44' W 095°17'0 0.0
2017-Oct-17 13:21N 29°44' W 095°17'0 0.0
2017-Oct-17 12:58N 29°44' W 095°17'0 0.0
2017-Oct-17 12:30N 29°44' W 095°17'0 0.0
2017-Oct-17 12:00N 29°44' W 095°17'0 0.0
2017-Oct-17 11:30N 29°44' W 095°17'0 0.0
2017-Oct-17 11:00N 29°44' W 095°17'0 0.0
2017-Oct-17 10:30N 29°44' W 095°17'0 0.0
2017-Oct-17 10:00N 29°44' W 095°17'0 0.0
2017-Oct-17 09:30N 29°44' W 095°17'0 0.0
2017-Oct-17 08:59N 29°44' W 095°17'0 0.0
2017-Oct-17 08:30N 29°44' W 095°17'0 0.0
2017-Oct-17 08:00N 29°44' W 095°17'0 0.1
2017-Oct-17 07:30N 29°44' W 095°17'1 1.1
2017-Oct-17 07:00N 29°44' W 095°16'2 4.0
2017-Oct-17 06:30N 29°43' W 095°14'3 6.4
2017-Oct-17 05:59N 29°45' W 095°11'3 6.4
2017-Oct-17 05:28N 29°44' W 095°07'3 5.5
2017-Oct-17 05:00N 29°45' W 095°04'3 6.0
2017-Oct-17 04:26N 29°43' W 095°01'2 5.5
2017-Oct-17 04:00N 29°42' W 094°59'3 4.4
2017-Oct-17 03:15N 29°41' W 094°56'1 3.8
2017-Oct-17 02:58N 29°42' W 094°55'0 0.0
2017-Oct-17 02:26N 29°42' W 094°55'0 0.7
2017-Oct-17 01:59N 29°42' W 094°55'2 4.1
2017-Oct-17 01:26N 29°41' W 094°58'2 5.4
2017-Oct-17 01:00N 29°39' W 094°58'3 5.1
2017-Oct-17 00:30N 29°37' W 094°60'1 2.3
2017-Oct-17 00:00N 29°37' W 094°58'2 4.5
2017-Oct-16 23:30N 29°39' W 094°58'2 4.4
2017-Oct-16 23:00N 29°41' W 094°58'2 3.9
2017-Oct-16 22:28N 29°40' W 094°56'2 3.1
2017-Oct-16 21:58N 29°42' W 094°55'0 0.5
2017-Oct-16 21:29N 29°42' W 094°55'1 0.7
2017-Oct-16 19:47N 29°43' W 094°56'0 0.1
2017-Oct-16 19:13N 29°43' W 094°56'0 0.8
2017-Oct-16 18:55N 29°42' W 094°56'1 2.3
2017-Oct-16 18:26N 29°42' W 094°55'0 0.5
2017-Oct-16 17:53N 29°42' W 094°55'0 0.7
2017-Oct-16 17:30N 29°42' W 094°55'2 3.2
2017-Oct-16 17:00N 29°41' W 094°57'2 3.4
2017-Oct-16 16:30N 29°40' W 094°58'3 6.3
2017-Oct-16 16:00N 29°37' W 094°58'2 3.8
2017-Oct-16 15:30N 29°37' W 095°00'0 0.0
2017-Oct-16 15:00N 29°37' W 095°00'0 0.0
2017-Oct-16 14:30N 29°37' W 095°00'0 0.0
2017-Oct-16 13:30N 29°37' W 095°00'0 0.0
2017-Oct-16 13:00N 29°37' W 095°00'0 0.0
2017-Oct-16 12:30N 29°37' W 095°00'0 0.1
2017-Oct-16 12:00N 29°37' W 095°00'0 0.0
2017-Oct-16 11:30N 29°37' W 095°00'0 0.0
2017-Oct-16 11:00N 29°37' W 095°00'0 0.0
2017-Oct-16 10:30N 29°37' W 095°00'0 0.0
2017-Oct-16 10:00N 29°37' W 095°00'0 0.0
2017-Oct-16 09:30N 29°37' W 095°00'0 0.0
2017-Oct-16 09:00N 29°37' W 095°00'0 0.0
2017-Oct-16 08:30N 29°37' W 095°00'0 0.0
2017-Oct-16 08:00N 29°37' W 095°00'0 0.0
2017-Oct-16 07:30N 29°37' W 095°00'0 0.0
2017-Oct-16 07:00N 29°37' W 095°00'0 0.0
2017-Oct-16 06:30N 29°37' W 095°00'0 0.0
2017-Oct-16 06:00N 29°37' W 095°00'0 0.0
2017-Oct-16 05:30N 29°37' W 095°00'0 0.0
2017-Oct-16 05:00N 29°37' W 095°00'0 0.0
2017-Oct-16 04:30N 29°37' W 095°00'0 0.0
2017-Oct-16 04:00N 29°37' W 095°00'0 0.0
2017-Oct-16 03:30N 29°37' W 095°00'1 1.7
2017-Oct-16 03:00N 29°37' W 094°59'2 3.6
2017-Oct-16 02:30N 29°38' W 094°58'3 5.9
2017-Oct-16 02:00N 29°41' W 094°59'2 3.1
2017-Oct-16 01:30N 29°41' W 094°57'1 2.3
2017-Oct-16 00:52N 29°41' W 094°55'0 0.3
2017-Oct-16 00:07N 29°42' W 094°55'0 2.9
2017-Oct-15 23:59N 29°41' W 094°55'1 2.8
2017-Oct-15 23:30N 29°41' W 094°57'2 3.7
2017-Oct-15 23:00N 29°41' W 094°59'2 4.1
2017-Oct-15 22:30N 29°39' W 094°58'2 4.9
2017-Oct-15 22:00N 29°41' W 094°58'2 3.7
2017-Oct-15 21:25N 29°40' W 094°56'1 3.1
2017-Oct-15 21:00N 29°41' W 094°55'0 1.0
2017-Oct-15 20:30N 29°42' W 094°55'1 2.2
2017-Oct-15 19:55N 29°43' W 094°56'1 1.3
2017-Oct-15 19:25N 29°43' W 094°57'1 1.6
2017-Oct-15 18:59N 29°43' W 094°56'1 0.5
2017-Oct-15 16:31N 29°42' W 094°55'0 0.0
2017-Oct-15 16:06N 29°42' W 094°55'0 0.0
2017-Oct-15 13:54N 29°42' W 094°55'0 0.0
2017-Oct-15 11:19N 29°42' W 094°55'0 0.0
2017-Oct-15 10:49N 29°42' W 094°55'0 0.0
2017-Oct-15 10:28N 29°42' W 094°55'0 0.0
2017-Oct-15 08:56N 29°42' W 094°55'0 0.0
2017-Oct-15 08:25N 29°42' W 094°55'0 0.0
2017-Oct-15 07:46N 29°42' W 094°55'0 0.0
2017-Oct-15 07:20N 29°42' W 094°55'0 0.0
2017-Oct-15 06:50N 29°42' W 094°55'0 0.0
2017-Oct-15 06:23N 29°42' W 094°55'0 0.0
2017-Oct-15 06:00N 29°42' W 094°55'0 0.0
2017-Oct-15 05:28N 29°42' W 094°55'0 0.0
2017-Oct-15 04:52N 29°42' W 094°55'0 0.0
2017-Oct-15 04:13N 29°42' W 094°55'0 0.0
2017-Oct-15 04:00N 29°42' W 094°55'0 0.0
2017-Oct-15 03:28N 29°42' W 094°55'0 0.0
2017-Oct-15 02:59N 29°42' W 094°55'0 0.0
2017-Oct-15 02:23N 29°42' W 094°55'0 0.0
2017-Oct-15 01:18N 29°42' W 094°55'0 0.0
2017-Oct-14 23:47N 29°42' W 094°55'0 0.0
2017-Oct-14 23:12N 29°42' W 094°55'0 0.0
2017-Oct-14 22:52N 29°42' W 094°55'0 0.0
2017-Oct-14 22:06N 29°42' W 094°55'0 0.0
2017-Oct-14 21:56N 29°42' W 094°55'1 1.6
2017-Oct-14 21:28N 29°42' W 094°56'1 1.6
2017-Oct-14 20:59N 29°43' W 094°56'0 0.0
2017-Oct-14 18:02N 29°43' W 094°56'0 0.0
2017-Oct-14 17:55N 29°43' W 094°56'0 0.1
2017-Oct-14 17:28N 29°43' W 094°56'0 0.1
2017-Oct-14 17:00N 29°43' W 094°56'1 1.2
2017-Oct-14 16:29N 29°42' W 094°56'1 0.8
2017-Oct-14 15:35N 29°42' W 094°55'0 0.4
2017-Oct-14 15:05N 29°42' W 094°55'1 3.0
2017-Oct-14 14:51N 29°42' W 094°56'1 2.0
2017-Oct-14 14:29N 29°43' W 094°56'0 0.1
2017-Oct-14 13:59N 29°43' W 094°56'0 0.0
2017-Oct-14 13:29N 29°43' W 094°56'0 0.0
2017-Oct-14 13:00N 29°43' W 094°56'0 0.0
2017-Oct-14 12:30N 29°43' W 094°56'0 0.0
2017-Oct-14 12:00N 29°43' W 094°56'0 0.0
2017-Oct-14 11:31N 29°43' W 094°56'0 0.0
2017-Oct-14 11:00N 29°43' W 094°56'0 0.0
2017-Oct-14 09:55N 29°43' W 094°56'0 0.0
2017-Oct-14 09:24N 29°43' W 094°56'0 0.0
2017-Oct-14 08:49N 29°43' W 094°56'0 0.0
2017-Oct-14 08:29N 29°43' W 094°56'0 0.0
2017-Oct-14 07:59N 29°43' W 094°56'0 0.0
2017-Oct-14 07:29N 29°43' W 094°56'0 0.0
2017-Oct-14 07:00N 29°43' W 094°56'0 0.0
2017-Oct-14 06:30N 29°43' W 094°56'0 0.0
2017-Oct-14 05:53N 29°43' W 094°56'0 0.0
2017-Oct-14 05:22N 29°43' W 094°56'0 0.0
2017-Oct-14 04:58N 29°43' W 094°56'0 0.0
2017-Oct-14 03:55N 29°43' W 094°56'0 0.0
2017-Oct-14 03:17N 29°43' W 094°56'0 0.0
2017-Oct-14 01:55N 29°43' W 094°56'2 0.8
2017-Oct-13 23:20N 29°41' W 094°57'1 3.8
2017-Oct-13 22:59N 29°41' W 094°58'2 4.5
2017-Oct-13 22:30N 29°42' W 095°00'3 5.4
2017-Oct-13 22:00N 29°44' W 095°03'3 5.0
2017-Oct-13 21:25N 29°45' W 095°06'3 5.9
2017-Oct-13 20:56N 29°44' W 095°09'7 0.9
2017-Oct-13 13:13N 29°44' W 095°17'0 0.0
2017-Oct-13 12:57N 29°44' W 095°17'0 0.0
2017-Oct-13 12:25N 29°44' W 095°17'0 0.0
2017-Oct-13 11:57N 29°44' W 095°17'0 0.0
2017-Oct-13 10:02N 29°44' W 095°17'0 0.0
2017-Oct-13 08:47N 29°44' W 095°17'0 0.6
2017-Oct-13 08:30N 29°44' W 095°17'3 5.3
2017-Oct-13 07:59N 29°44' W 095°13'3 6.1
2017-Oct-13 07:30N 29°45' W 095°10'3 6.2
2017-Oct-13 06:58N 29°44' W 095°07'2 5.2
2017-Oct-13 06:30N 29°45' W 095°04'3 6.4
2017-Oct-13 06:00N 29°43' W 095°01'3 6.0
2017-Oct-13 05:30N 29°41' W 094°59'2 4.9
2017-Oct-13 05:00N 29°41' W 094°56'1 2.3
2017-Oct-13 04:24N 29°42' W 094°55'1 2.2
2017-Oct-13 03:56N 29°41' W 094°55'1 2.6
2017-Oct-13 03:28N 29°41' W 094°57'2 3.5
2017-Oct-13 03:00N 29°41' W 094°59'3 5.6
2017-Oct-13 02:30N 29°43' W 095°01'3 5.5
2017-Oct-13 01:59N 29°45' W 095°04'4 4.6
2017-Oct-13 01:11N 29°44' W 095°08'1 6.2
2017-Oct-13 00:59N 29°44' W 095°09'3 5.2
2017-Oct-13 00:27N 29°44' W 095°13'2 5.4
2017-Oct-13 00:00N 29°44' W 095°15'1 2.6
2017-Oct-12 23:29N 29°44' W 095°17'0 0.0
2017-Oct-12 18:22N 29°44' W 095°17'0 0.1
2017-Oct-12 17:57N 29°44' W 095°17'1 2.9
2017-Oct-12 17:30N 29°44' W 095°15'3 5.4
2017-Oct-12 16:58N 29°44' W 095°12'2 4.5
2017-Oct-12 16:27N 29°44' W 095°09'4 5.7
2017-Oct-12 15:50N 29°45' W 095°06'2 4.8
2017-Oct-12 15:27N 29°45' W 095°04'3 5.7
2017-Oct-12 14:59N 29°43' W 095°01'3 5.4
2017-Oct-12 14:30N 29°41' W 094°59'3 5.0
2017-Oct-12 13:57N 29°40' W 094°56'2 0.1
2017-Oct-11 22:04N 29°42' W 094°55'0 0.7
2017-Oct-11 21:58N 29°42' W 094°55'1 0.0
2017-Oct-10 23:55N 29°41' W 094°55'2 3.9
2017-Oct-10 23:30N 29°41' W 094°57'2 3.1
2017-Oct-10 23:00N 29°40' W 094°59'3 6.4
2017-Oct-10 22:30N 29°37' W 094°58'2 4.3
2017-Oct-10 22:00N 29°37' W 095°00'0 0.0
2017-Oct-10 21:30N 29°37' W 095°00'0 0.0
2017-Oct-10 21:00N 29°37' W 095°00'0 0.0
2017-Oct-10 20:30N 29°37' W 095°00'0 0.0
2017-Oct-10 20:00N 29°37' W 095°00'0 0.0
2017-Oct-10 19:30N 29°37' W 095°00'0 0.0
2017-Oct-10 19:00N 29°37' W 095°00'0 0.0
2017-Oct-10 18:30N 29°37' W 095°00'0 0.0
2017-Oct-10 18:00N 29°37' W 095°00'0 0.0
2017-Oct-10 17:30N 29°37' W 095°00'0 0.0
2017-Oct-10 17:00N 29°37' W 095°00'0 0.1
2017-Oct-10 16:30N 29°37' W 094°60'2 4.3
2017-Oct-10 16:00N 29°38' W 094°58'3 6.7
2017-Oct-10 15:30N 29°41' W 094°59'2 4.0
2017-Oct-10 14:59N 29°41' W 094°57'2 0.1
2017-Oct-10 00:17N 29°42' W 094°55'1 3.3
2017-Oct-09 23:55N 29°41' W 094°56'1 2.0
2017-Oct-09 23:26N 29°42' W 094°55'0 0.1
2017-Oct-09 16:50N 29°42' W 094°55'  
Track history (hours):
 
Tides and Currents Weather Stations Pressure Air Temp Water Temp Dewpoint Dewpoint Depression Visibility Wind Speed Wind Dir Waves Ship Positions

Caleb J. Eymard

Owner: Eymard Brothers Towing Company, Inc., Marrero, LA. More information available from US FCC via Universal Licensing System and Coast Guard Vessel Documentation Center.

Last reported at 2017-Oct-17 23:53 UTC. Time now 2017-Oct-18 00:20 UTC.
Position N 29°44' W 095°03'.

Length 20 m; draft 3 m.

Type: Towing. MMSI: 367082880.

Date/timePositionNaut miles runAvg speedWind from/ knotsBaromVisibWave heightAir tempDewpointWater temp
2017-Oct-17 23:53N 29°44' W 095°03'3 5.1
2017-Oct-17 23:21N 29°46' W 095°05'3 5.7
2017-Oct-17 22:51N 29°44' W 095°08'3 5.8
2017-Oct-17 22:21N 29°45' W 095°11'2 5.6
2017-Oct-17 21:59N 29°43' W 095°13'3 5.3
2017-Oct-17 21:30N 29°44' W 095°16'1 1.4
2017-Oct-17 21:00N 29°44' W 095°17'0 0.1
2017-Oct-17 19:54N 29°44' W 095°17'0 0.0
2017-Oct-17 18:24N 29°44' W 095°17'0 0.0
2017-Oct-17 17:47N 29°44' W 095°17'0 0.0
2017-Oct-17 17:26N 29°44' W 095°17'0 0.0
2017-Oct-17 16:50N 29°44' W 095°17'0 0.0
2017-Oct-17 16:21N 29°44' W 095°17'0 0.0
2017-Oct-17 14:43N 29°44' W 095°17'0 0.0
2017-Oct-17 14:30N 29°44' W 095°17'0 0.0
2017-Oct-17 13:55N 29°44' W 095°17'0 0.0
2017-Oct-17 13:21N 29°44' W 095°17'0 0.0
2017-Oct-17 12:58N 29°44' W 095°17'0 0.0
2017-Oct-17 12:30N 29°44' W 095°17'0 0.0
2017-Oct-17 12:00N 29°44' W 095°17'0 0.0
2017-Oct-17 11:30N 29°44' W 095°17'0 0.0
2017-Oct-17 11:00N 29°44' W 095°17'0 0.0
2017-Oct-17 10:30N 29°44' W 095°17'0 0.0
2017-Oct-17 10:00N 29°44' W 095°17'0 0.0
2017-Oct-17 09:30N 29°44' W 095°17'0 0.0
2017-Oct-17 08:59N 29°44' W 095°17'0 0.0
2017-Oct-17 08:30N 29°44' W 095°17'0 0.0
2017-Oct-17 08:00N 29°44' W 095°17'0 0.1
2017-Oct-17 07:30N 29°44' W 095°17'1 1.1
2017-Oct-17 07:00N 29°44' W 095°16'2 4.0
2017-Oct-17 06:30N 29°43' W 095°14'3 6.4
2017-Oct-17 05:59N 29°45' W 095°11'3 6.4
2017-Oct-17 05:28N 29°44' W 095°07'3 5.5
2017-Oct-17 05:00N 29°45' W 095°04'3 6.0
2017-Oct-17 04:26N 29°43' W 095°01'2 5.5
2017-Oct-17 04:00N 29°42' W 094°59'3 4.4
2017-Oct-17 03:15N 29°41' W 094°56'1 3.8
2017-Oct-17 02:58N 29°42' W 094°55'0 0.0
2017-Oct-17 02:26N 29°42' W 094°55'0 0.7
2017-Oct-17 01:59N 29°42' W 094°55'2 4.1
2017-Oct-17 01:26N 29°41' W 094°58'2 5.4
2017-Oct-17 01:00N 29°39' W 094°58'3 5.1
2017-Oct-17 00:30N 29°37' W 094°60'1 2.3
2017-Oct-17 00:00N 29°37' W 094°58'2 4.5
2017-Oct-16 23:30N 29°39' W 094°58'2 4.4
2017-Oct-16 23:00N 29°41' W 094°58'2 3.9
2017-Oct-16 22:28N 29°40' W 094°56'2 3.1
2017-Oct-16 21:58N 29°42' W 094°55'0 0.5
2017-Oct-16 21:29N 29°42' W 094°55'1 0.7
2017-Oct-16 19:47N 29°43' W 094°56'0 0.1
2017-Oct-16 19:13N 29°43' W 094°56'0 0.8
2017-Oct-16 18:55N 29°42' W 094°56'1 2.3
2017-Oct-16 18:26N 29°42' W 094°55'0 0.5
2017-Oct-16 17:53N 29°42' W 094°55'0 0.7
2017-Oct-16 17:30N 29°42' W 094°55'2 3.2
2017-Oct-16 17:00N 29°41' W 094°57'2 3.4
2017-Oct-16 16:30N 29°40' W 094°58'3 6.3
2017-Oct-16 16:00N 29°37' W 094°58'2 3.8
2017-Oct-16 15:30N 29°37' W 095°00'0 0.0
2017-Oct-16 15:00N 29°37' W 095°00'0 0.0
2017-Oct-16 14:30N 29°37' W 095°00'0 0.0
2017-Oct-16 13:30N 29°37' W 095°00'0 0.0
2017-Oct-16 13:00N 29°37' W 095°00'0 0.0
2017-Oct-16 12:30N 29°37' W 095°00'0 0.1
2017-Oct-16 12:00N 29°37' W 095°00'0 0.0
2017-Oct-16 11:30N 29°37' W 095°00'0 0.0
2017-Oct-16 11:00N 29°37' W 095°00'0 0.0
2017-Oct-16 10:30N 29°37' W 095°00'0 0.0
2017-Oct-16 10:00N 29°37' W 095°00'0 0.0
2017-Oct-16 09:30N 29°37' W 095°00'0 0.0
2017-Oct-16 09:00N 29°37' W 095°00'0 0.0
2017-Oct-16 08:30N 29°37' W 095°00'0 0.0
2017-Oct-16 08:00N 29°37' W 095°00'0 0.0
2017-Oct-16 07:30N 29°37' W 095°00'0 0.0
2017-Oct-16 07:00N 29°37' W 095°00'0 0.0
2017-Oct-16 06:30N 29°37' W 095°00'0 0.0
2017-Oct-16 06:00N 29°37' W 095°00'0 0.0
2017-Oct-16 05:30N 29°37' W 095°00'0 0.0
2017-Oct-16 05:00N 29°37' W 095°00'0 0.0
2017-Oct-16 04:30N 29°37' W 095°00'0 0.0
2017-Oct-16 04:00N 29°37' W 095°00'0 0.0
2017-Oct-16 03:30N 29°37' W 095°00'1 1.7
2017-Oct-16 03:00N 29°37' W 094°59'2 3.6
2017-Oct-16 02:30N 29°38' W 094°58'3 5.9
2017-Oct-16 02:00N 29°41' W 094°59'2 3.1
2017-Oct-16 01:30N 29°41' W 094°57'1 2.3
2017-Oct-16 00:52N 29°41' W 094°55'0 0.3
2017-Oct-16 00:07N 29°42' W 094°55'0 2.9
2017-Oct-15 23:59N 29°41' W 094°55'1 2.8
2017-Oct-15 23:30N 29°41' W 094°57'2 3.7
2017-Oct-15 23:00N 29°41' W 094°59'2 4.1
2017-Oct-15 22:30N 29°39' W 094°58'2 4.9
2017-Oct-15 22:00N 29°41' W 094°58'2 3.7
2017-Oct-15 21:25N 29°40' W 094°56'1 3.1
2017-Oct-15 21:00N 29°41' W 094°55'0 1.0
2017-Oct-15 20:30N 29°42' W 094°55'1 2.2
2017-Oct-15 19:55N 29°43' W 094°56'1 1.3
2017-Oct-15 19:25N 29°43' W 094°57'1 1.6
2017-Oct-15 18:59N 29°43' W 094°56'1 0.5
2017-Oct-15 16:31N 29°42' W 094°55'0 0.0
2017-Oct-15 16:06N 29°42' W 094°55'0 0.0
2017-Oct-15 13:54N 29°42' W 094°55'0 0.0
2017-Oct-15 11:19N 29°42' W 094°55'0 0.0
2017-Oct-15 10:49N 29°42' W 094°55'0 0.0
2017-Oct-15 10:28N 29°42' W 094°55'0 0.0
2017-Oct-15 08:56N 29°42' W 094°55'0 0.0
2017-Oct-15 08:25N 29°42' W 094°55'0 0.0
2017-Oct-15 07:46N 29°42' W 094°55'0 0.0
2017-Oct-15 07:20N 29°42' W 094°55'0 0.0
2017-Oct-15 06:50N 29°42' W 094°55'0 0.0
2017-Oct-15 06:23N 29°42' W 094°55'0 0.0
2017-Oct-15 06:00N 29°42' W 094°55'0 0.0
2017-Oct-15 05:28N 29°42' W 094°55'0 0.0
2017-Oct-15 04:52N 29°42' W 094°55'0 0.0
2017-Oct-15 04:13N 29°42' W 094°55'0 0.0
2017-Oct-15 04:00N 29°42' W 094°55'0 0.0
2017-Oct-15 03:28N 29°42' W 094°55'0 0.0
2017-Oct-15 02:59N 29°42' W 094°55'0 0.0
2017-Oct-15 02:23N 29°42' W 094°55'0 0.0
2017-Oct-15 01:18N 29°42' W 094°55'0 0.0
2017-Oct-14 23:47N 29°42' W 094°55'0 0.0
2017-Oct-14 23:12N 29°42' W 094°55'0 0.0
2017-Oct-14 22:52N 29°42' W 094°55'0 0.0
2017-Oct-14 22:06N 29°42' W 094°55'0 0.0
2017-Oct-14 21:56N 29°42' W 094°55'1 1.6
2017-Oct-14 21:28N 29°42' W 094°56'1 1.6
2017-Oct-14 20:59N 29°43' W 094°56'0 0.0
2017-Oct-14 18:02N 29°43' W 094°56'0 0.0
2017-Oct-14 17:55N 29°43' W 094°56'0 0.1
2017-Oct-14 17:28N 29°43' W 094°56'0 0.1
2017-Oct-14 17:00N 29°43' W 094°56'1 1.2
2017-Oct-14 16:29N 29°42' W 094°56'1 0.8
2017-Oct-14 15:35N 29°42' W 094°55'0 0.4
2017-Oct-14 15:05N 29°42' W 094°55'1 3.0
2017-Oct-14 14:51N 29°42' W 094°56'1 2.0
2017-Oct-14 14:29N 29°43' W 094°56'0 0.1
2017-Oct-14 13:59N 29°43' W 094°56'0 0.0
2017-Oct-14 13:29N 29°43' W 094°56'0 0.0
2017-Oct-14 13:00N 29°43' W 094°56'0 0.0
2017-Oct-14 12:30N 29°43' W 094°56'0 0.0
2017-Oct-14 12:00N 29°43' W 094°56'0 0.0
2017-Oct-14 11:31N 29°43' W 094°56'0 0.0
2017-Oct-14 11:00N 29°43' W 094°56'0 0.0
2017-Oct-14 09:55N 29°43' W 094°56'0 0.0
2017-Oct-14 09:24N 29°43' W 094°56'0 0.0
2017-Oct-14 08:49N 29°43' W 094°56'0 0.0
2017-Oct-14 08:29N 29°43' W 094°56'0 0.0
2017-Oct-14 07:59N 29°43' W 094°56'0 0.0
2017-Oct-14 07:29N 29°43' W 094°56'0 0.0
2017-Oct-14 07:00N 29°43' W 094°56'0 0.0
2017-Oct-14 06:30N 29°43' W 094°56'0 0.0
2017-Oct-14 05:53N 29°43' W 094°56'0 0.0
2017-Oct-14 05:22N 29°43' W 094°56'0 0.0
2017-Oct-14 04:58N 29°43' W 094°56'0 0.0
2017-Oct-14 03:55N 29°43' W 094°56'0 0.0
2017-Oct-14 03:17N 29°43' W 094°56'0 0.0
2017-Oct-14 01:55N 29°43' W 094°56'2 0.8
2017-Oct-13 23:20N 29°41' W 094°57'1 3.8
2017-Oct-13 22:59N 29°41' W 094°58'2 4.5
2017-Oct-13 22:30N 29°42' W 095°00'3 5.4
2017-Oct-13 22:00N 29°44' W 095°03'3 5.0
2017-Oct-13 21:25N 29°45' W 095°06'3 5.9
2017-Oct-13 20:56N 29°44' W 095°09'7 0.9
2017-Oct-13 13:13N 29°44' W 095°17'0 0.0
2017-Oct-13 12:57N 29°44' W 095°17'0 0.0
2017-Oct-13 12:25N 29°44' W 095°17'0 0.0
2017-Oct-13 11:57N 29°44' W 095°17'0 0.0
2017-Oct-13 10:02N 29°44' W 095°17'0 0.0
2017-Oct-13 08:47N 29°44' W 095°17'0 0.6
2017-Oct-13 08:30N 29°44' W 095°17'3 5.3
2017-Oct-13 07:59N 29°44' W 095°13'3 6.1
2017-Oct-13 07:30N 29°45' W 095°10'3 6.2
2017-Oct-13 06:58N 29°44' W 095°07'2 5.2
2017-Oct-13 06:30N 29°45' W 095°04'3 6.4
2017-Oct-13 06:00N 29°43' W 095°01'3 6.0
2017-Oct-13 05:30N 29°41' W 094°59'2 4.9
2017-Oct-13 05:00N 29°41' W 094°56'1 2.3
2017-Oct-13 04:24N 29°42' W 094°55'1 2.2
2017-Oct-13 03:56N 29°41' W 094°55'1 2.6
2017-Oct-13 03:28N 29°41' W 094°57'2 3.5
2017-Oct-13 03:00N 29°41' W 094°59'3 5.6
2017-Oct-13 02:30N 29°43' W 095°01'3 5.5
2017-Oct-13 01:59N 29°45' W 095°04'4 4.6
2017-Oct-13 01:11N 29°44' W 095°08'1 6.2
2017-Oct-13 00:59N 29°44' W 095°09'3 5.2
2017-Oct-13 00:27N 29°44' W 095°13'2 5.4
2017-Oct-13 00:00N 29°44' W 095°15'1 2.6
2017-Oct-12 23:29N 29°44' W 095°17'0 0.0
2017-Oct-12 18:22N 29°44' W 095°17'0 0.1
2017-Oct-12 17:57N 29°44' W 095°17'1 2.9
2017-Oct-12 17:30N 29°44' W 095°15'3 5.4
2017-Oct-12 16:58N 29°44' W 095°12'2 4.5
2017-Oct-12 16:27N 29°44' W 095°09'4 5.7
2017-Oct-12 15:50N 29°45' W 095°06'2 4.8
2017-Oct-12 15:27N 29°45' W 095°04'3 5.7
2017-Oct-12 14:59N 29°43' W 095°01'3 5.4
2017-Oct-12 14:30N 29°41' W 094°59'3 5.0
2017-Oct-12 13:57N 29°40' W 094°56'2 0.1
2017-Oct-11 22:04N 29°42' W 094°55'0 0.7
2017-Oct-11 21:58N 29°42' W 094°55'1 0.0
2017-Oct-10 23:55N 29°41' W 094°55'2 3.9
2017-Oct-10 23:30N 29°41' W 094°57'2 3.1
2017-Oct-10 23:00N 29°40' W 094°59'3 6.4
2017-Oct-10 22:30N 29°37' W 094°58'2 4.3
2017-Oct-10 22:00N 29°37' W 095°00'0 0.0
2017-Oct-10 21:30N 29°37' W 095°00'0 0.0
2017-Oct-10 21:00N 29°37' W 095°00'0 0.0
2017-Oct-10 20:30N 29°37' W 095°00'0 0.0
2017-Oct-10 20:00N 29°37' W 095°00'0 0.0
2017-Oct-10 19:30N 29°37' W 095°00'0 0.0
2017-Oct-10 19:00N 29°37' W 095°00'0 0.0
2017-Oct-10 18:30N 29°37' W 095°00'0 0.0
2017-Oct-10 18:00N 29°37' W 095°00'0 0.0
2017-Oct-10 17:30N 29°37' W 095°00'0 0.0
2017-Oct-10 17:00N 29°37' W 095°00'0 0.1
2017-Oct-10 16:30N 29°37' W 094°60'2 4.3
2017-Oct-10 16:00N 29°38' W 094°58'3 6.7
2017-Oct-10 15:30N 29°41' W 094°59'2 4.0
2017-Oct-10 14:59N 29°41' W 094°57'2 0.1
2017-Oct-10 00:17N 29°42' W 094°55'1 3.3
2017-Oct-09 23:55N 29°41' W 094°56'1 2.0
2017-Oct-09 23:26N 29°42' W 094°55'0 0.1
2017-Oct-09 16:50N 29°42' W 094°55'  

Dump ship's entire track history